CheckWX is a tool to help pilots better visualize weather data.  It is not intended as a substitute for an official pre-flight weather briefing.

15:51:53 UTC

KRCZ METAR
Richmond County Airport
Rockingham, North Carolina, USA
Current

17 mins ago

KRCZ 141535Z AUTO 00000KT 10SM OVC004 08/06 A2958 RMK AO2 T00830063
Observed
Dec-14 @ 15:35 UTC
Visibility
10 SM
Flight Rules
LIFR
Cloud Levels
  • Overcast at 400' AGL
Temperature
C / 46°F
Dewpoint
C / 43°F
Humidity
87%
Altimeter
29.58" Hg
Pressure
1001.72 hPa
Previous

37 mins ago

KRCZ 141515Z AUTO 00000KT 10SM OVC004 08/06 A2957 RMK AO2 T00800060
Observed
Dec-14 @ 15:15 UTC
Visibility
10 SM
Flight Rules
LIFR
Cloud Levels
  • Overcast at 400' AGL
Temperature
C / 46°F
Dewpoint
C / 43°F
Humidity
87%
Altimeter
29.57" Hg
Pressure
1001.32 hPa
Previous

57 mins ago

KRCZ 141455Z AUTO 00000KT 7SM OVC004 08/06 A2959 RMK AO2 T00760057
Observed
Dec-14 @ 14:55 UTC
Visibility
7 SM
Flight Rules
LIFR
Cloud Levels
  • Overcast at 400' AGL
Temperature
C / 46°F
Dewpoint
C / 43°F
Humidity
87%
Altimeter
29.59" Hg
Pressure
1002.02 hPa